Aviation Digital Data Service (ADDS)

Output produced by METARs form (0003 UTC 16 February 2019)
found at http://www.aviationweather.gov/metar/data/
 
Forecast for: MMPB (PUEBLA , MX)
Text: TAF MMPB 151628Z 1518/1618 14012KT P6SM SKC
Forecast period: 1800 UTC 15 February 2019 to 0300 UTC 16 February 2019
Forecast type: FROM: standard forecast or significant change
Winds: from the SE (140 degrees) at 14 MPH (12 knots; 6.2 m/s)
Visibility: 6 or more miles 10+ km)
Clouds: clear skies
Weather: no significant weather forecast for this period
Text: FM160300 04005KT P6SM SKC
Forecast period: 0300 to 1800 UTC 16 February 2019
Forecast type: FROM: standard forecast or significant change
Winds: from the NE (40 degrees) at 6 MPH (5 knots; 2.6 m/s)
Visibility: 6 or more miles 10+ km)
Clouds: clear skies
Weather: no significant weather forecast for this period